createdAt,value
2023-01-27T00:02:07.806Z,0.70
2023-01-27T00:07:09.826Z,0.77
2023-01-27T00:12:38.409Z,1.83
2023-01-27T00:17:40.832Z,0.60
2023-01-27T00:23:01.362Z,1.05
2023-01-27T00:28:06.307Z,0.85
2023-01-27T00:33:27.978Z,0.47
2023-01-27T00:38:31.811Z,0.90
2023-01-27T00:43:34.022Z,0.65
2023-01-27T00:48:36.002Z,0.93
2023-01-27T00:53:38.098Z,0.50
2023-01-27T00:58:40.408Z,0.75
2023-01-27T01:03:42.977Z,0.80
2023-01-27T01:08:45.384Z,0.70
2023-01-27T01:13:48.140Z,0.52
2023-01-27T01:18:50.365Z,0.57
2023-01-27T01:23:52.275Z,0.50
2023-01-27T01:28:54.071Z,0.45
2023-01-27T01:33:55.981Z,0.95
2023-01-27T01:38:58.067Z,0.40
2023-01-27T01:44:18.579Z,0.70
2023-01-27T01:49:23.959Z,0.32
2023-01-27T01:54:53.925Z,0.63
2023-01-27T02:00:07.207Z,0.98
2023-01-27T02:05:14.918Z,0.38
2023-01-27T02:10:17.162Z,0.30
2023-01-27T02:15:21.639Z,0.63
2023-01-27T02:20:44.519Z,0.77
2023-01-27T02:25:58.588Z,0.40
2023-01-27T02:31:00.600Z,0.60
2023-01-27T02:36:15.161Z,0.40
2023-01-27T02:41:31.834Z,0.50
2023-01-27T02:46:34.102Z,0.50
2023-01-27T02:51:35.991Z,0.38
2023-01-27T02:56:38.101Z,0.73
2023-01-27T03:01:40.020Z,0.30
2023-01-27T03:06:42.143Z,0.30
2023-01-27T03:12:02.907Z,0.50
2023-01-27T03:17:23.397Z,0.38
2023-01-27T03:22:26.545Z,0.40
2023-01-27T03:27:28.364Z,1.20
2023-01-27T03:32:32.018Z,0.35
2023-01-27T03:37:52.621Z,0.32
2023-01-27T03:43:13.315Z,0.43
2023-01-27T03:48:17.581Z,0.35
2023-01-27T03:53:20.887Z,0.40
2023-01-27T03:58:29.327Z,0.30
2023-01-27T04:03:52.721Z,0.35
2023-01-27T04:08:55.108Z,0.50
2023-01-27T04:14:00.238Z,0.52
2023-01-27T04:19:02.032Z,0.40
2023-01-27T04:24:04.551Z,0.30
2023-01-27T04:29:07.667Z,0.68
2023-01-27T04:34:11.017Z,0.45
2023-01-27T04:39:13.195Z,0.40
2023-01-27T04:44:15.440Z,0.60
2023-01-27T04:49:18.590Z,1.00
2023-01-27T04:54:20.855Z,1.17
2023-01-27T04:59:22.827Z,1.20
2023-01-27T05:04:26.801Z,1.60
2023-01-27T05:09:28.884Z,1.92
2023-01-27T05:14:30.791Z,1.50
2023-01-27T05:19:32.725Z,0.90
2023-01-27T05:24:35.105Z,1.73
2023-01-27T05:29:37.582Z,1.70
2023-01-27T05:34:39.612Z,1.40
2023-01-27T05:39:41.733Z,1.50
2023-01-27T05:44:44.149Z,1.60
2023-01-27T05:49:46.177Z,1.10
2023-01-27T05:54:48.057Z,1.40
2023-01-27T05:59:50.165Z,1.38
2023-01-27T06:04:52.047Z,1.42
2023-01-27T06:09:53.969Z,1.00
2023-01-27T06:14:58.574Z,0.90
2023-01-27T06:20:00.562Z,0.98
2023-01-27T06:25:02.522Z,1.27
2023-01-27T06:30:04.627Z,0.90
2023-01-27T06:35:07.149Z,0.95
2023-01-27T06:40:09.664Z,0.98
2023-01-27T06:45:12.739Z,1.00
2023-01-27T06:50:15.247Z,0.90
2023-01-27T06:55:17.618Z,1.00
2023-01-27T07:00:19.980Z,0.70
2023-01-27T07:05:22.010Z,1.00
2023-01-27T07:10:24.009Z,0.93
2023-01-27T07:15:26.035Z,0.90
2023-01-27T07:20:29.164Z,1.00
2023-01-27T07:25:32.518Z,0.95
2023-01-27T07:30:35.302Z,0.85
2023-01-27T07:35:38.685Z,0.82
2023-01-27T07:40:40.974Z,0.93
2023-01-27T07:45:42.871Z,1.15
2023-01-27T07:50:44.873Z,0.93
2023-01-27T07:55:46.957Z,1.00
2023-01-27T08:00:49.228Z,0.90
2023-01-27T08:05:51.381Z,0.80
2023-01-27T08:10:54.708Z,0.93
2023-01-27T08:15:58.435Z,0.80
2023-01-27T08:21:02.340Z,0.77
2023-01-27T08:26:05.923Z,0.85
2023-01-27T08:31:16.453Z,0.85
2023-01-27T08:36:20.186Z,0.93
2023-01-27T08:41:25.214Z,0.60
2023-01-27T08:46:27.252Z,0.90
2023-01-27T08:51:29.468Z,0.90
2023-01-27T08:56:31.478Z,0.70
2023-01-27T09:01:33.633Z,0.73
2023-01-27T09:06:35.905Z,0.90
2023-01-27T09:11:41.125Z,0.60
2023-01-27T09:16:43.206Z,0.50
2023-01-27T09:21:45.164Z,0.68
2023-01-27T09:26:47.443Z,0.63
2023-01-27T09:31:49.417Z,0.50
2023-01-27T09:36:59.989Z,0.80
2023-01-27T09:42:18.119Z,0.77
2023-01-27T09:47:57.570Z,0.60
2023-01-27T09:53:29.733Z,0.60
2023-01-27T09:58:34.448Z,0.70
2023-01-27T10:03:43.632Z,0.73
2023-01-27T10:09:00.791Z,0.70
2023-01-27T10:14:14.646Z,0.50
2023-01-27T10:19:57.341Z,0.50
2023-01-27T10:25:13.131Z,0.40
2023-01-27T10:30:23.036Z,0.47
2023-01-27T10:35:38.423Z,0.65
2023-01-27T10:41:17.884Z,0.40
2023-01-27T10:46:41.540Z,0.47
2023-01-27T10:51:49.988Z,0.55
2023-01-27T10:57:04.131Z,0.60
2023-01-27T11:02:13.751Z,0.38
2023-01-27T11:07:19.608Z,0.40
2023-01-27T11:12:32.473Z,0.30
2023-01-27T11:17:52.893Z,0.43
2023-01-27T11:23:20.098Z,0.47
2023-01-27T11:29:00.571Z,0.77
2023-01-27T11:34:16.437Z,0.40
2023-01-27T11:39:19.133Z,0.43
2023-01-27T11:44:33.011Z,0.52
2023-01-27T11:49:43.192Z,0.50
2023-01-27T11:55:11.687Z,0.50
2023-01-27T12:00:26.162Z,0.60
2023-01-27T12:05:33.886Z,0.60
2023-01-27T12:10:44.426Z,0.73
2023-01-27T12:16:15.954Z,1.10
2023-01-27T12:21:18.554Z,0.90
2023-01-27T12:26:34.816Z,0.85
2023-01-27T12:31:46.760Z,0.60
2023-01-27T12:36:50.546Z,0.80
2023-01-27T12:41:52.853Z,0.80
2023-01-27T12:47:04.454Z,1.23
2023-01-27T12:52:19.684Z,0.80
2023-01-27T12:57:23.504Z,1.10
2023-01-27T13:02:33.226Z,0.80
2023-01-27T13:07:52.016Z,0.88
2023-01-27T13:13:01.617Z,0.77
2023-01-27T13:18:19.504Z,1.35
2023-01-27T13:23:28.607Z,0.50
2023-01-27T13:28:53.723Z,0.70
2023-01-27T13:34:02.914Z,0.55
2023-01-27T13:39:04.850Z,0.70
2023-01-27T13:44:32.399Z,0.70
2023-01-27T13:49:43.359Z,0.80
2023-01-27T13:54:45.393Z,0.55
2023-01-27T13:59:59.538Z,0.77
2023-01-27T14:05:23.245Z,0.60
2023-01-27T14:10:42.017Z,0.90
2023-01-27T14:16:07.788Z,0.80
2023-01-27T14:21:46.490Z,0.80
2023-01-27T14:27:05.939Z,0.90
2023-01-27T14:32:07.865Z,0.80
2023-01-27T14:37:34.810Z,0.80
2023-01-27T14:42:51.224Z,1.00
2023-01-27T14:48:17.097Z,0.60
2023-01-27T14:53:21.945Z,0.80
2023-01-27T14:58:43.278Z,0.60
2023-01-27T15:04:03.323Z,0.73
2023-01-27T15:09:19.849Z,0.90
2023-01-27T15:14:36.829Z,0.60
2023-01-27T15:19:53.886Z,0.80
2023-01-27T15:25:29.998Z,1.25
2023-01-27T15:30:38.792Z,1.23
2023-01-27T15:35:41.876Z,1.20
2023-01-27T15:40:55.536Z,1.38
2023-01-27T15:45:58.653Z,1.05
2023-01-27T15:51:06.990Z,1.00
2023-01-27T15:56:09.988Z,0.90
2023-01-27T16:01:25.863Z,0.68
2023-01-27T16:06:28.048Z,1.88
2023-01-27T16:11:29.964Z,0.68
2023-01-27T16:16:34.852Z,0.93
2023-01-27T16:21:50.492Z,0.70
2023-01-27T16:27:04.603Z,0.80
2023-01-27T16:32:15.142Z,0.60
2023-01-27T16:37:24.251Z,1.08
2023-01-27T16:42:36.268Z,0.85
2023-01-27T16:47:46.163Z,0.80
2023-01-27T16:52:48.188Z,0.68
2023-01-27T16:57:52.651Z,0.70
2023-01-27T17:02:57.207Z,0.65
2023-01-27T17:08:17.099Z,0.60
2023-01-27T17:13:30.205Z,0.70
2023-01-27T17:18:51.730Z,0.52
2023-01-27T17:24:02.315Z,0.77
2023-01-27T17:29:04.701Z,0.60
2023-01-27T17:34:06.557Z,0.60
2023-01-27T17:39:25.586Z,0.82
2023-01-27T17:44:27.967Z,1.33
2023-01-27T17:49:31.190Z,0.68
2023-01-27T17:54:37.721Z,0.50
2023-01-27T17:59:43.895Z,1.08
2023-01-27T18:04:47.115Z,0.52
2023-01-27T18:09:55.954Z,1.02
2023-01-27T18:14:57.974Z,0.30
2023-01-27T18:19:59.775Z,0.30
2023-01-27T18:25:04.084Z,0.40
2023-01-27T18:30:16.292Z,0.40
2023-01-27T18:35:28.028Z,0.43
2023-01-27T18:40:36.126Z,0.70
2023-01-27T18:45:38.009Z,0.43
2023-01-27T18:50:42.193Z,0.43
2023-01-27T18:55:44.679Z,0.40
2023-01-27T19:00:53.414Z,0.50
2023-01-27T19:05:55.476Z,0.65
2023-01-27T19:10:57.539Z,0.50
2023-01-27T19:16:00.166Z,0.60
2023-01-27T19:21:02.542Z,0.70
2023-01-27T19:26:10.939Z,0.30
2023-01-27T19:31:13.122Z,0.30
2023-01-27T19:36:21.247Z,0.45
2023-01-27T19:41:23.198Z,0.40
2023-01-27T19:46:25.391Z,0.43
2023-01-27T19:51:27.651Z,0.88
2023-01-27T19:56:31.949Z,0.45
2023-01-27T20:01:34.076Z,0.30
2023-01-27T20:06:36.265Z,0.28
2023-01-27T20:11:43.315Z,0.45
2023-01-27T20:16:45.980Z,0.30
2023-01-27T20:21:47.960Z,0.47
2023-01-27T20:26:50.065Z,0.40
2023-01-27T20:31:52.916Z,0.50
2023-01-27T20:36:54.981Z,0.70
2023-01-27T20:41:56.862Z,0.20
2023-01-27T20:46:58.825Z,0.40
2023-01-27T20:52:00.808Z,0.25
2023-01-27T20:57:03.066Z,0.35
2023-01-27T21:02:05.154Z,0.30
2023-01-27T21:07:07.826Z,0.40
2023-01-27T21:12:09.793Z,0.38
2023-01-27T21:17:12.374Z,0.40
2023-01-27T21:22:14.575Z,0.28
2023-01-27T21:27:16.353Z,0.20
2023-01-27T21:32:18.110Z,0.40
2023-01-27T21:37:19.790Z,0.30
2023-01-27T21:42:39.772Z,0.47
2023-01-27T21:47:42.758Z,0.30
2023-01-27T21:52:47.583Z,0.40
2023-01-27T21:57:53.262Z,0.38
2023-01-27T22:03:00.653Z,0.38
2023-01-27T22:08:02.760Z,0.50
2023-01-27T22:13:04.889Z,0.32
2023-01-27T22:18:07.506Z,0.50
2023-01-27T22:23:09.533Z,0.40
2023-01-27T22:28:11.427Z,0.25
2023-01-27T22:33:13.674Z,0.40
2023-01-27T22:38:15.670Z,0.30
2023-01-27T22:43:17.665Z,1.25
2023-01-27T22:48:19.638Z,0.20
2023-01-27T22:53:21.794Z,0.30
2023-01-27T22:58:24.104Z,0.22
2023-01-27T23:03:25.962Z,0.20
2023-01-27T23:08:27.804Z,0.20
2023-01-27T23:13:30.879Z,0.30
2023-01-27T23:18:33.133Z,0.30
2023-01-27T23:23:36.328Z,0.20
2023-01-27T23:28:39.023Z,0.20
2023-01-27T23:33:42.229Z,0.30
2023-01-27T23:38:44.367Z,0.30
2023-01-27T23:43:52.419Z,0.15
2023-01-27T23:48:55.658Z,0.20
2023-01-27T23:53:58.135Z,0.22
2023-01-27T23:59:00.226Z,0.10
